createdAt,value
2022-09-12T00:03:08.145Z,13.58
2022-09-12T00:08:10.009Z,13.95
2022-09-12T00:13:11.721Z,15.80
2022-09-12T00:18:16.010Z,16.54
2022-09-12T00:23:18.665Z,17.20
2022-09-12T00:28:19.863Z,17.31
2022-09-12T00:33:21.647Z,17.06
2022-09-12T00:38:22.709Z,14.97
2022-09-12T00:43:30.034Z,13.56
2022-09-12T00:48:37.563Z,14.01
2022-09-12T00:53:42.959Z,15.91
2022-09-12T00:58:57.796Z,16.54
2022-09-12T01:04:00.534Z,17.27
2022-09-12T01:09:04.111Z,16.96
2022-09-12T01:14:07.082Z,14.84
2022-09-12T01:19:39.936Z,14.62
2022-09-12T01:25:00.011Z,16.47
2022-09-12T01:30:13.730Z,17.17
2022-09-12T01:35:26.988Z,16.75
2022-09-12T01:40:43.202Z,14.63
2022-09-12T01:46:11.144Z,14.51
2022-09-12T01:51:17.277Z,16.30
2022-09-12T01:56:25.793Z,17.01
2022-09-12T02:01:30.214Z,16.31
2022-09-12T02:06:37.740Z,14.33
2022-09-12T02:11:42.840Z,14.18
2022-09-12T02:17:11.409Z,15.29
2022-09-12T02:22:17.016Z,15.59
2022-09-12T02:27:24.334Z,15.75
2022-09-12T02:32:37.501Z,15.90
2022-09-12T02:37:45.314Z,16.09
2022-09-12T02:42:46.512Z,16.28
2022-09-12T02:47:49.987Z,16.46
2022-09-12T02:52:53.996Z,16.64
2022-09-12T02:57:55.199Z,16.17
2022-09-12T03:03:04.784Z,14.40
2022-09-12T03:08:34.657Z,13.20
2022-09-12T03:13:45.844Z,13.69
2022-09-12T03:18:47.103Z,15.12
2022-09-12T03:24:10.526Z,15.88
2022-09-12T03:29:14.289Z,16.65
2022-09-12T03:34:16.066Z,17.43
2022-09-12T03:39:17.714Z,17.05
2022-09-12T03:44:19.212Z,15.11
2022-09-12T03:49:20.429Z,14.88
2022-09-12T03:54:21.501Z,16.81
2022-09-12T03:59:22.680Z,17.35
2022-09-12T04:04:23.941Z,15.71
2022-09-12T04:09:25.082Z,14.16
2022-09-12T04:14:26.241Z,13.50
2022-09-12T04:19:27.419Z,15.18
2022-09-12T04:24:28.689Z,16.10
2022-09-12T04:29:30.778Z,16.24
2022-09-12T04:34:32.005Z,16.35
2022-09-12T04:39:34.794Z,16.60
2022-09-12T04:44:37.082Z,16.83
2022-09-12T04:49:40.113Z,16.93
2022-09-12T04:54:41.247Z,15.60
2022-09-12T04:59:42.643Z,14.35
2022-09-12T05:04:46.155Z,14.78
2022-09-12T05:09:47.426Z,16.73
2022-09-12T05:14:48.664Z,17.55
2022-09-12T05:19:50.289Z,17.51
2022-09-12T05:24:51.363Z,15.64
2022-09-12T05:29:52.780Z,14.51
2022-09-12T05:34:54.085Z,14.94
2022-09-12T05:39:56.355Z,17.28
2022-09-12T05:44:57.881Z,17.41
2022-09-12T05:49:59.118Z,15.51
2022-09-12T05:55:00.203Z,15.50
2022-09-12T06:00:02.245Z,17.51
2022-09-12T06:05:03.790Z,17.59
2022-09-12T06:10:05.290Z,15.85
2022-09-12T06:15:07.351Z,16.00
2022-09-12T06:20:08.947Z,18.12
2022-09-12T06:25:10.136Z,17.47
2022-09-12T06:30:12.111Z,16.05
2022-09-12T06:35:13.546Z,16.40
2022-09-12T06:40:15.230Z,18.61
2022-09-12T06:45:19.176Z,18.82
2022-09-12T06:50:21.575Z,17.28
2022-09-12T06:55:27.637Z,16.60
2022-09-12T07:00:29.327Z,18.47
2022-09-12T07:05:33.115Z,19.08
2022-09-12T07:10:34.347Z,17.55
2022-09-12T07:15:35.994Z,16.86
2022-09-12T07:20:37.670Z,18.42
2022-09-12T07:25:39.206Z,19.07
2022-09-12T07:30:40.754Z,17.75
2022-09-12T07:35:41.951Z,18.36
2022-09-12T07:40:43.465Z,19.54
2022-09-12T07:45:44.683Z,18.42
2022-09-12T07:50:46.198Z,17.57
2022-09-12T07:55:53.812Z,17.22
2022-09-12T08:01:04.901Z,19.17
2022-09-12T08:06:25.606Z,18.77
2022-09-12T08:11:28.838Z,17.76
2022-09-12T08:16:31.135Z,17.50
2022-09-12T08:21:33.626Z,19.48
2022-09-12T08:26:35.316Z,18.83
2022-09-12T08:31:37.429Z,17.68
2022-09-12T08:36:38.539Z,17.11
2022-09-12T08:41:47.132Z,16.92
2022-09-12T08:46:56.614Z,17.84
2022-09-12T08:52:02.424Z,19.33
2022-09-12T08:57:05.290Z,18.27
2022-09-12T09:02:26.496Z,17.69
2022-09-12T09:07:51.750Z,18.37
2022-09-12T09:13:11.730Z,19.70
2022-09-12T09:18:24.300Z,18.59
2022-09-12T09:23:47.642Z,18.02
2022-09-12T09:29:10.752Z,17.79
2022-09-12T09:34:21.330Z,18.77
2022-09-12T09:39:47.674Z,20.40
2022-09-12T09:44:52.986Z,19.57
2022-09-12T09:49:54.179Z,19.02
2022-09-12T09:54:59.092Z,18.62
2022-09-12T10:00:26.479Z,18.62
2022-09-12T10:05:29.015Z,18.67
2022-09-12T10:10:30.505Z,18.63
2022-09-12T10:15:34.031Z,18.62
2022-09-12T10:20:44.538Z,18.54
2022-09-12T10:25:54.281Z,18.43
2022-09-12T10:30:56.147Z,18.45
2022-09-12T10:35:57.857Z,18.55
2022-09-12T10:41:08.906Z,18.66
2022-09-12T10:46:30.550Z,18.67
2022-09-12T10:51:32.280Z,18.58
2022-09-12T10:57:11.799Z,18.48
2022-09-12T11:02:35.071Z,18.40
2022-09-12T11:07:53.368Z,18.34
2022-09-12T11:12:57.703Z,18.38
2022-09-12T11:18:26.268Z,18.51
2022-09-12T11:23:52.882Z,18.55
2022-09-12T11:28:54.224Z,18.49
2022-09-12T11:33:58.522Z,18.50
2022-09-12T11:39:12.717Z,18.69
2022-09-12T11:44:23.042Z,18.97
2022-09-12T11:49:44.024Z,19.50
2022-09-12T11:55:10.603Z,19.32
2022-09-12T12:00:31.521Z,18.73
2022-09-12T12:06:00.776Z,18.43
2022-09-12T12:11:05.428Z,18.44
2022-09-12T12:16:15.227Z,18.56
2022-09-12T12:21:41.734Z,18.55
2022-09-12T12:26:56.599Z,18.38
2022-09-12T12:32:00.188Z,18.31
2022-09-12T12:37:20.432Z,18.18
2022-09-12T12:42:42.426Z,18.05
2022-09-12T12:47:46.888Z,18.17
2022-09-12T12:53:08.945Z,18.48
2022-09-12T12:58:32.505Z,18.93
2022-09-12T13:03:34.478Z,18.91
2022-09-12T13:08:39.968Z,18.55
2022-09-12T13:13:56.474Z,18.20
2022-09-12T13:19:03.817Z,17.88
2022-09-12T13:24:15.185Z,17.70
2022-09-12T13:29:19.174Z,17.56
2022-09-12T13:34:31.243Z,17.72
2022-09-12T13:40:00.644Z,18.04
2022-09-12T13:45:26.372Z,18.48
2022-09-12T13:50:32.747Z,18.95
2022-09-12T13:55:45.426Z,18.96
2022-09-12T14:01:04.726Z,18.76
2022-09-12T14:06:07.733Z,18.88
2022-09-12T14:11:11.224Z,19.14
2022-09-12T14:16:14.709Z,19.40
2022-09-12T14:21:33.354Z,19.51
2022-09-12T14:26:39.827Z,19.21
2022-09-12T14:31:46.200Z,19.08
2022-09-12T14:36:50.295Z,19.11
2022-09-12T14:42:06.348Z,19.18
2022-09-12T14:47:17.975Z,19.40
2022-09-12T14:52:29.198Z,19.45
2022-09-12T14:57:35.692Z,19.38
2022-09-12T15:02:37.974Z,19.27
2022-09-12T15:08:01.879Z,19.16
2022-09-12T15:13:18.687Z,19.14
2022-09-12T15:18:21.472Z,19.27
2022-09-12T15:23:49.049Z,19.36
2022-09-12T15:28:50.734Z,19.15
2022-09-12T15:33:54.075Z,18.95
2022-09-12T15:38:58.060Z,18.74
2022-09-12T15:43:59.835Z,18.51
2022-09-12T15:49:03.896Z,18.33
2022-09-12T15:54:08.206Z,18.22
2022-09-12T15:59:09.558Z,18.07
2022-09-12T16:04:30.427Z,17.96
2022-09-12T16:09:32.705Z,17.80
2022-09-12T16:14:34.736Z,17.51
2022-09-12T16:19:36.591Z,17.27
2022-09-12T16:24:41.175Z,17.10
2022-09-12T16:29:42.777Z,16.85
2022-09-12T16:34:44.172Z,16.57
2022-09-12T16:39:48.196Z,16.39
2022-09-12T16:44:49.977Z,16.20
2022-09-12T16:49:52.818Z,15.99
2022-09-12T16:54:54.234Z,15.78
2022-09-12T16:59:55.992Z,15.54
2022-09-12T17:04:58.710Z,15.34
2022-09-12T17:10:00.487Z,15.14
2022-09-12T17:15:02.402Z,15.92
2022-09-12T17:20:04.417Z,18.30
2022-09-12T17:25:06.412Z,18.62
2022-09-12T17:30:09.158Z,17.26
2022-09-12T17:35:10.846Z,16.41
2022-09-12T17:40:13.297Z,15.81
2022-09-12T17:45:18.448Z,15.29
2022-09-12T17:50:39.263Z,15.69
2022-09-12T17:55:41.112Z,17.74
2022-09-12T18:01:01.012Z,18.60
2022-09-12T18:06:02.273Z,18.69
2022-09-12T18:11:04.915Z,17.03
2022-09-12T18:16:12.022Z,15.97
2022-09-12T18:21:13.528Z,15.24
2022-09-12T18:26:14.934Z,15.62
2022-09-12T18:31:20.235Z,17.74
2022-09-12T18:36:22.391Z,18.82
2022-09-12T18:41:24.679Z,18.73
2022-09-12T18:46:31.773Z,17.07
2022-09-12T18:51:35.519Z,16.00
2022-09-12T18:56:38.649Z,15.25
2022-09-12T19:01:41.605Z,15.51
2022-09-12T19:06:46.111Z,17.63
2022-09-12T19:11:48.955Z,18.55
2022-09-12T19:16:51.361Z,17.51
2022-09-12T19:21:53.360Z,15.93
2022-09-12T19:26:54.642Z,14.95
2022-09-12T19:31:56.572Z,15.26
2022-09-12T19:37:01.448Z,17.27
2022-09-12T19:42:03.039Z,17.41
2022-09-12T19:47:04.251Z,15.74
2022-09-12T19:52:05.529Z,14.62
2022-09-12T19:57:06.806Z,14.96
2022-09-12T20:02:08.020Z,16.88
2022-09-12T20:07:09.529Z,17.87
2022-09-12T20:12:10.816Z,16.98
2022-09-12T20:17:12.073Z,15.29
2022-09-12T20:22:13.377Z,14.25
2022-09-12T20:27:14.781Z,14.64
2022-09-12T20:32:17.635Z,16.67
2022-09-12T20:37:19.111Z,17.43
2022-09-12T20:42:20.370Z,17.05
2022-09-12T20:47:21.534Z,15.34
2022-09-12T20:52:22.937Z,14.18
2022-09-12T20:57:24.180Z,14.55
2022-09-12T21:02:25.385Z,16.58
2022-09-12T21:07:26.865Z,17.33
2022-09-12T21:12:28.042Z,15.70
2022-09-12T21:17:29.169Z,14.21
2022-09-12T21:22:31.253Z,14.27
2022-09-12T21:27:32.755Z,15.58
2022-09-12T21:32:35.333Z,16.20
2022-09-12T21:37:36.465Z,16.86
2022-09-12T21:42:37.497Z,16.50
2022-09-12T21:47:38.700Z,14.68
2022-09-12T21:52:40.741Z,14.52
2022-09-12T21:57:41.969Z,16.26
2022-09-12T22:02:43.448Z,16.26
2022-09-12T22:07:44.478Z,14.36
2022-09-12T22:12:46.459Z,13.13
2022-09-12T22:17:47.991Z,13.47
2022-09-12T22:23:08.388Z,15.49
2022-09-12T22:28:09.736Z,16.49
2022-09-12T22:33:10.897Z,16.16
2022-09-12T22:38:12.496Z,14.25
2022-09-12T22:43:13.666Z,12.98
2022-09-12T22:48:16.453Z,13.24
2022-09-12T22:53:17.926Z,15.25
2022-09-12T22:58:19.028Z,16.03
2022-09-12T23:03:20.735Z,16.38
2022-09-12T23:08:21.950Z,15.32
2022-09-12T23:13:22.997Z,13.55
2022-09-12T23:18:24.466Z,12.43
2022-09-12T23:23:26.257Z,12.85
2022-09-12T23:28:28.226Z,15.00
2022-09-12T23:33:31.142Z,16.02
2022-09-12T23:38:35.543Z,15.59
2022-09-12T23:43:37.143Z,13.62
2022-09-12T23:48:39.409Z,12.41
2022-09-12T23:53:40.941Z,12.57
2022-09-12T23:58:42.239Z,14.86
